Zeus — V2OR — position and weather

sailwx.info

Track history (hours):
 
Tides and Currents Weather Stations Pressure Air Temp Water Temp Dewpoint Dewpoint Depression Visibility Wind Speed Wind Dir Waves Ship Positions

Zeus

Last reported at 2014-Dec-17 02:15 UTC. Time now 2014-Dec-22 22:46 UTC.
Position N 38°21' W 009°44'.

Length 90 m; draft 4.6 m.

Type: Cargo ship. MMSI: 304011025.

Date/timePositionNaut miles runAvg speedWind from/ knotsBaromVisibWave heightAir tempDewpointWater temp
2014-Dec-17 02:15N 38°21' W 009°44'6 8.2
2014-Dec-17 01:33N 38°25' W 009°39'9 8.7
2014-Dec-17 00:33N 38°31' W 009°31'9 8.7
2014-Dec-16 23:33N 38°37' W 009°23'9 8.5
2014-Dec-16 22:33N 38°41' W 009°14'2 1.9
2014-Dec-16 21:32N 38°41' W 009°11'0 0.0
2014-Dec-16 20:32N 38°41' W 009°11'0 0.0
2014-Dec-16 19:32N 38°41' W 009°11'0 0.0
2014-Dec-16 18:32N 38°41' W 009°11'0 0.0
2014-Dec-16 17:32N 38°41' W 009°11'0 0.0
2014-Dec-16 16:32N 38°41' W 009°11'2 2.5
2014-Dec-16 15:32N 38°40' W 009°14'0 0.0
2014-Dec-16 14:32N 38°41' W 009°14'0 0.0
2014-Dec-16 13:32N 38°41' W 009°14'0 0.0
2014-Dec-16 12:32N 38°40' W 009°14'0 0.0
2014-Dec-16 11:29N 38°40' W 009°14'0 0.0
2014-Dec-16 10:29N 38°40' W 009°14'0 0.0
2014-Dec-16 09:32N 38°40' W 009°14'0 0.0
2014-Dec-16 08:32N 38°40' W 009°14'0 0.0
2014-Dec-16 07:32N 38°41' W 009°14'0 0.0
2014-Dec-16 06:32N 38°40' W 009°14'0 0.0
2014-Dec-16 05:30N 38°40' W 009°14'0 0.0
2014-Dec-16 04:20N 38°40' W 009°14'0 0.0
2014-Dec-16 03:32N 38°40' W 009°14'0 0.0
2014-Dec-16 01:05N 38°40' W 009°14'0 0.0
2014-Dec-15 23:29N 38°41' W 009°14'0 0.0
2014-Dec-15 22:32N 38°40' W 009°14'0 0.0
2014-Dec-15 21:32N 38°41' W 009°14'0 0.0
2014-Dec-15 20:32N 38°40' W 009°14'1 1.1
2014-Dec-15 19:33N 38°41' W 009°16'6 6.0
2014-Dec-15 18:33N 38°37' W 009°22'9 8.4
2014-Dec-15 17:33N 38°29' W 009°21'9 8.7
2014-Dec-15 16:33N 38°21' W 009°18'8 7.8
2014-Dec-15 15:33N 38°13' W 009°16'8 7.9
2014-Dec-15 14:33N 38°05' W 009°14'8 8.2
2014-Dec-15 13:33N 37°57' W 009°14'8 7.9
2014-Dec-15 12:32N 37°49' W 009°16'8 7.6
2014-Dec-15 11:33N 37°41' W 009°17'7 7.0
2014-Dec-15 10:34N 37°35' W 009°18'6 6.4
2014-Dec-15 09:33N 37°28' W 009°18'206 6.0
2014-Dec-13 23:33N 36°02' W 005°25'6 2.0
2014-Dec-13 20:14N 36°09' W 005°22'4 4.3
2014-Dec-13 19:24N 36°05' W 005°20'3 3.4
2014-Dec-13 18:32N 36°06' W 005°16'  
Track history (hours):
 
Tides and Currents Weather Stations Pressure Air Temp Water Temp Dewpoint Dewpoint Depression Visibility Wind Speed Wind Dir Waves Ship Positions

Zeus

Last reported at 2014-Dec-17 02:15 UTC. Time now 2014-Dec-22 22:46 UTC.
Position N 38°21' W 009°44'.

Length 90 m; draft 4.6 m.

Type: Cargo ship. MMSI: 304011025.

Date/timePositionNaut miles runAvg speedWind from/ knotsBaromVisibWave heightAir tempDewpointWater temp
2014-Dec-17 02:15N 38°21' W 009°44'6 8.2
2014-Dec-17 01:33N 38°25' W 009°39'9 8.7
2014-Dec-17 00:33N 38°31' W 009°31'9 8.7
2014-Dec-16 23:33N 38°37' W 009°23'9 8.5
2014-Dec-16 22:33N 38°41' W 009°14'2 1.9
2014-Dec-16 21:32N 38°41' W 009°11'0 0.0
2014-Dec-16 20:32N 38°41' W 009°11'0 0.0
2014-Dec-16 19:32N 38°41' W 009°11'0 0.0
2014-Dec-16 18:32N 38°41' W 009°11'0 0.0
2014-Dec-16 17:32N 38°41' W 009°11'0 0.0
2014-Dec-16 16:32N 38°41' W 009°11'2 2.5
2014-Dec-16 15:32N 38°40' W 009°14'0 0.0
2014-Dec-16 14:32N 38°41' W 009°14'0 0.0
2014-Dec-16 13:32N 38°41' W 009°14'0 0.0
2014-Dec-16 12:32N 38°40' W 009°14'0 0.0
2014-Dec-16 11:29N 38°40' W 009°14'0 0.0
2014-Dec-16 10:29N 38°40' W 009°14'0 0.0
2014-Dec-16 09:32N 38°40' W 009°14'0 0.0
2014-Dec-16 08:32N 38°40' W 009°14'0 0.0
2014-Dec-16 07:32N 38°41' W 009°14'0 0.0
2014-Dec-16 06:32N 38°40' W 009°14'0 0.0
2014-Dec-16 05:30N 38°40' W 009°14'0 0.0
2014-Dec-16 04:20N 38°40' W 009°14'0 0.0
2014-Dec-16 03:32N 38°40' W 009°14'0 0.0
2014-Dec-16 01:05N 38°40' W 009°14'0 0.0
2014-Dec-15 23:29N 38°41' W 009°14'0 0.0
2014-Dec-15 22:32N 38°40' W 009°14'0 0.0
2014-Dec-15 21:32N 38°41' W 009°14'0 0.0
2014-Dec-15 20:32N 38°40' W 009°14'1 1.1
2014-Dec-15 19:33N 38°41' W 009°16'6 6.0
2014-Dec-15 18:33N 38°37' W 009°22'9 8.4
2014-Dec-15 17:33N 38°29' W 009°21'9 8.7
2014-Dec-15 16:33N 38°21' W 009°18'8 7.8
2014-Dec-15 15:33N 38°13' W 009°16'8 7.9
2014-Dec-15 14:33N 38°05' W 009°14'8 8.2
2014-Dec-15 13:33N 37°57' W 009°14'8 7.9
2014-Dec-15 12:32N 37°49' W 009°16'8 7.6
2014-Dec-15 11:33N 37°41' W 009°17'7 7.0
2014-Dec-15 10:34N 37°35' W 009°18'6 6.4
2014-Dec-15 09:33N 37°28' W 009°18'206 6.0
2014-Dec-13 23:33N 36°02' W 005°25'6 2.0
2014-Dec-13 20:14N 36°09' W 005°22'4 4.3
2014-Dec-13 19:24N 36°05' W 005°20'3 3.4
2014-Dec-13 18:32N 36°06' W 005°16'  

Dump ship's entire track history